sensor_id;sensor_type;location;lat;lon;timestamp;pressure;altitude;pressure_sealevel;temperature;humidity
47524;BME280;33253;42.144;25.884;2022-07-29T00:01:34;100451.84;;;24.35;72.30
47524;BME280;33253;42.144;25.884;2022-07-29T00:03:59;100449.66;;;24.13;72.13
47524;BME280;33253;42.144;25.884;2022-07-29T00:06:25;100446.16;;;24.13;71.58
47524;BME280;33253;42.144;25.884;2022-07-29T00:08:50;100395.84;;;23.77;71.06
47524;BME280;33253;42.144;25.884;2022-07-29T00:11:16;100443.53;;;24.13;70.26
47524;BME280;33253;42.144;25.884;2022-07-29T00:13:41;100464.38;;;24.25;69.96
47524;BME280;33253;42.144;25.884;2022-07-29T00:16:07;100406.16;;;23.89;69.89
47524;BME280;33253;42.144;25.884;2022-07-29T00:18:32;100467.88;;;24.26;69.48
47524;BME280;33253;42.144;25.884;2022-07-29T00:20:58;100461.06;;;24.14;69.10
47524;BME280;33253;42.144;25.884;2022-07-29T00:23:23;100442.97;;;23.95;69.52
47524;BME280;33253;42.144;25.884;2022-07-29T00:25:49;100478.91;;;24.01;69.90
47524;BME280;33253;42.144;25.884;2022-07-29T00:28:14;100476.97;;;23.59;72.32
47524;BME280;33253;42.144;25.884;2022-07-29T00:30:39;100459.59;;;23.47;72.59
47524;BME280;33253;42.144;25.884;2022-07-29T00:33:08;100457.16;;;23.35;73.16
47524;BME280;33253;42.144;25.884;2022-07-29T00:35:33;100463.16;;;23.45;73.32
47524;BME280;33253;42.144;25.884;2022-07-29T00:38:13;100397.91;;;23.06;72.67
47524;BME280;33253;42.144;25.884;2022-07-29T00:40:39;100462.69;;;23.19;73.63
47524;BME280;33253;42.144;25.884;2022-07-29T00:43:05;100449.44;;;23.22;72.12
47524;BME280;33253;42.144;25.884;2022-07-29T00:45:31;100454.50;;;23.36;71.51
47524;BME280;33253;42.144;25.884;2022-07-29T00:47:56;100417.25;;;23.03;71.47
47524;BME280;33253;42.144;25.884;2022-07-29T00:50:22;100453.69;;;23.31;72.65
47524;BME280;33253;42.144;25.884;2022-07-29T00:52:49;100440.03;;;23.06;72.86
47524;BME280;33253;42.144;25.884;2022-07-29T00:55:15;100439.00;;;23.15;72.01
47524;BME280;33253;42.144;25.884;2022-07-29T00:57:42;100454.69;;;23.24;71.15
47524;BME280;33253;42.144;25.884;2022-07-29T01:00:13;100460.78;;;23.29;70.26
47524;BME280;33253;42.144;25.884;2022-07-29T01:02:39;100456.41;;;23.28;69.13
47524;BME280;33253;42.144;25.884;2022-07-29T01:05:05;100439.72;;;23.27;68.21
47524;BME280;33253;42.144;25.884;2022-07-29T01:07:35;100432.63;;;23.31;67.77
47524;BME280;33253;42.144;25.884;2022-07-29T01:10:04;100413.53;;;23.18;68.29
47524;BME280;33253;42.144;25.884;2022-07-29T01:12:31;100421.31;;;23.26;68.89
47524;BME280;33253;42.144;25.884;2022-07-29T01:14:59;100429.22;;;23.26;69.54
47524;BME280;33253;42.144;25.884;2022-07-29T01:17:32;100411.75;;;23.19;69.67
47524;BME280;33253;42.144;25.884;2022-07-29T01:23:10;100431.91;;;23.21;70.06
47524;BME280;33253;42.144;25.884;2022-07-29T01:25:48;100442.38;;;23.26;69.87
47524;BME280;33253;42.144;25.884;2022-07-29T01:31:10;100448.03;;;22.98;70.82
47524;BME280;33253;42.144;25.884;2022-07-29T01:33:40;100437.63;;;22.89;70.86
47524;BME280;33253;42.144;25.884;2022-07-29T01:36:23;100433.34;;;22.82;71.14
47524;BME280;33253;42.144;25.884;2022-07-29T01:38:59;100417.81;;;22.65;70.77
47524;BME280;33253;42.144;25.884;2022-07-29T01:41:31;100438.63;;;22.80;69.99
47524;BME280;33253;42.144;25.884;2022-07-29T01:44:02;100438.75;;;22.72;70.59
47524;BME280;33253;42.144;25.884;2022-07-29T01:46:38;100356.97;;;22.19;70.52
47524;BME280;33253;42.144;25.884;2022-07-29T01:49:17;100418.78;;;22.57;70.64
47524;BME280;33253;42.144;25.884;2022-07-29T01:51:50;100430.09;;;22.62;70.22
47524;BME280;33253;42.144;25.884;2022-07-29T01:54:30;100408.31;;;22.53;70.37
47524;BME280;33253;42.144;25.884;2022-07-29T01:56:58;100410.91;;;22.56;69.79
47524;BME280;33253;42.144;25.884;2022-07-29T01:59:25;100425.75;;;22.60;69.74
47524;BME280;33253;42.144;25.884;2022-07-29T02:01:53;100403.09;;;22.50;69.25
47524;BME280;33253;42.144;25.884;2022-07-29T02:04:20;100396.03;;;22.52;68.90
47524;BME280;33253;42.144;25.884;2022-07-29T02:06:48;100416.97;;;22.61;69.27
47524;BME280;33253;42.144;25.884;2022-07-29T02:09:14;100424.09;;;22.54;69.82
47524;BME280;33253;42.144;25.884;2022-07-29T02:11:47;100400.75;;;22.25;69.86
47524;BME280;33253;42.144;25.884;2022-07-29T02:14:14;100415.47;;;22.41;69.72
47524;BME280;33253;42.144;25.884;2022-07-29T02:16:41;100425.16;;;22.38;70.27
47524;BME280;33253;42.144;25.884;2022-07-29T02:19:07;100420.75;;;22.37;70.29
47524;BME280;33253;42.144;25.884;2022-07-29T02:21:34;100408.75;;;22.17;71.20
47524;BME280;33253;42.144;25.884;2022-07-29T02:24:01;100421.75;;;22.28;71.15
47524;BME280;33253;42.144;25.884;2022-07-29T02:26:29;100400.88;;;22.14;71.17
47524;BME280;33253;42.144;25.884;2022-07-29T02:28:57;100385.38;;;21.92;71.39
47524;BME280;33253;42.144;25.884;2022-07-29T02:31:25;100413.25;;;22.06;72.15
47524;BME280;33253;42.144;25.884;2022-07-29T02:33:52;100380.16;;;21.88;72.07
47524;BME280;33253;42.144;25.884;2022-07-29T02:36:21;100387.94;;;21.95;72.43
47524;BME280;33253;42.144;25.884;2022-07-29T02:38:48;100407.09;;;22.08;73.27
47524;BME280;33253;42.144;25.884;2022-07-29T02:41:23;100397.31;;;22.20;73.39
47524;BME280;33253;42.144;25.884;2022-07-29T02:43:54;100382.56;;;22.09;74.33
47524;BME280;33253;42.144;25.884;2022-07-29T02:46:28;100391.19;;;22.18;75.25
47524;BME280;33253;42.144;25.884;2022-07-29T02:49:02;100403.28;;;22.33;75.28
47524;BME280;33253;42.144;25.884;2022-07-29T02:51:36;100404.06;;;22.42;75.48
47524;BME280;33253;42.144;25.884;2022-07-29T02:54:07;100407.47;;;22.49;76.39
47524;BME280;33253;42.144;25.884;2022-07-29T02:56:34;100384.00;;;22.32;76.31
47524;BME280;33253;42.144;25.884;2022-07-29T02:59:04;100413.53;;;22.56;75.92
47524;BME280;33253;42.144;25.884;2022-07-29T03:01:32;100412.69;;;22.54;76.27
47524;BME280;33253;42.144;25.884;2022-07-29T03:04:01;100402.22;;;22.51;76.08
47524;BME280;33253;42.144;25.884;2022-07-29T03:06:28;100422.78;;;22.85;77.09
47524;BME280;33253;42.144;25.884;2022-07-29T03:08:56;100422.53;;;23.02;75.84
47524;BME280;33253;42.144;25.884;2022-07-29T03:11:23;100372.78;;;22.85;78.25
47524;BME280;33253;42.144;25.884;2022-07-29T03:13:49;100355.38;;;22.76;78.10
47524;BME280;33253;42.144;25.884;2022-07-29T03:16:15;100400.66;;;22.98;78.17
47524;BME280;33253;42.144;25.884;2022-07-29T03:21:06;100392.16;;;22.79;78.32
47524;BME280;33253;42.144;25.884;2022-07-29T03:23:33;100401.00;;;22.75;79.13
47524;BME280;33253;42.144;25.884;2022-07-29T03:25:58;100424.38;;;22.95;76.40
47524;BME280;33253;42.144;25.884;2022-07-29T03:28:24;100380.06;;;22.67;73.40
47524;BME280;33253;42.144;25.884;2022-07-29T03:30:49;100426.28;;;22.87;72.61
47524;BME280;33253;42.144;25.884;2022-07-29T03:33:15;100379.66;;;22.29;72.64
47524;BME280;33253;42.144;25.884;2022-07-29T03:35:41;100403.41;;;22.23;73.85
47524;BME280;33253;42.144;25.884;2022-07-29T03:38:07;100396.59;;;22.05;73.02
47524;BME280;33253;42.144;25.884;2022-07-29T03:40:54;100441.88;;;22.32;71.76
47524;BME280;33253;42.144;25.884;2022-07-29T03:43:22;100385.38;;;21.89;71.03
47524;BME280;33253;42.144;25.884;2022-07-29T03:45:52;100424.69;;;22.00;71.64
47524;BME280;33253;42.144;25.884;2022-07-29T03:48:20;100421.28;;;21.92;71.58
47524;BME280;33253;42.144;25.884;2022-07-29T03:50:47;100421.31;;;21.89;71.04
47524;BME280;33253;42.144;25.884;2022-07-29T03:53:13;100441.47;;;21.87;72.47
47524;BME280;33253;42.144;25.884;2022-07-29T03:55:45;100445.94;;;21.80;73.14
47524;BME280;33253;42.144;25.884;2022-07-29T03:58:13;100441.69;;;21.65;73.78
47524;BME280;33253;42.144;25.884;2022-07-29T04:00:39;100417.28;;;21.50;72.62
47524;BME280;33253;42.144;25.884;2022-07-29T04:03:05;100454.78;;;21.71;73.04
47524;BME280;33253;42.144;25.884;2022-07-29T04:05:30;100430.44;;;21.47;73.01
47524;BME280;33253;42.144;25.884;2022-07-29T04:07:56;100452.22;;;21.65;72.77
47524;BME280;33253;42.144;25.884;2022-07-29T04:10:21;100377.28;;;21.19;73.49
47524;BME280;33253;42.144;25.884;2022-07-29T04:12:48;100440.03;;;21.55;73.77
47524;BME280;33253;42.144;25.884;2022-07-29T04:15:14;100445.19;;;21.69;73.42
47524;BME280;33253;42.144;25.884;2022-07-29T04:17:39;100454.75;;;21.74;73.31
47524;BME280;33253;42.144;25.884;2022-07-29T04:20:05;100463.44;;;21.83;73.09
47524;BME280;33253;42.144;25.884;2022-07-29T04:22:31;100448.59;;;21.75;72.71
47524;BME280;33253;42.144;25.884;2022-07-29T04:24:56;100461.69;;;21.81;72.86
47524;BME280;33253;42.144;25.884;2022-07-29T04:27:22;100410.25;;;21.57;73.76
47524;BME280;33253;42.144;25.884;2022-07-29T04:29:47;100418.03;;;21.67;73.83
47524;BME280;33253;42.144;25.884;2022-07-29T04:32:12;100445.84;;;21.88;73.86
47524;BME280;33253;42.144;25.884;2022-07-29T04:34:38;100410.06;;;21.76;74.08
47524;BME280;33253;42.144;25.884;2022-07-29T04:37:03;100456.97;;;22.13;73.13
47524;BME280;33253;42.144;25.884;2022-07-29T04:39:30;100472.69;;;22.19;72.58
47524;BME280;33253;42.144;25.884;2022-07-29T04:41:55;100443.03;;;22.09;73.45
47524;BME280;33253;42.144;25.884;2022-07-29T04:44:41;100449.03;;;22.21;72.80
47524;BME280;33253;42.144;25.884;2022-07-29T04:47:09;100475.81;;;22.54;73.48
47524;BME280;33253;42.144;25.884;2022-07-29T04:49:37;100446.19;;;22.41;74.09
47524;BME280;33253;42.144;25.884;2022-07-29T04:52:03;100475.72;;;22.61;74.46
47524;BME280;33253;42.144;25.884;2022-07-29T04:54:29;100482.59;;;22.73;72.90
47524;BME280;33253;42.144;25.884;2022-07-29T04:56:54;100476.69;;;22.56;73.68
47524;BME280;33253;42.144;25.884;2022-07-29T04:59:20;100397.72;;;21.84;73.25
47524;BME280;33253;42.144;25.884;2022-07-29T05:01:45;100498.63;;;22.52;73.77
47524;BME280;33253;42.144;25.884;2022-07-29T05:04:10;100491.53;;;22.60;73.61
47524;BME280;33253;42.144;25.884;2022-07-29T05:06:36;100481.06;;;22.57;73.62
47524;BME280;33253;42.144;25.884;2022-07-29T05:09:03;100488.78;;;22.71;72.92
47524;BME280;33253;42.144;25.884;2022-07-29T05:11:28;100500.81;;;22.90;72.33
47524;BME280;33253;42.144;25.884;2022-07-29T05:13:54;100483.88;;;23.08;73.28
47524;BME280;33253;42.144;25.884;2022-07-29T05:16:19;100482.03;;;23.14;71.95
47524;BME280;33253;42.144;25.884;2022-07-29T05:19:05;100460.09;;;23.16;70.04
47524;BME280;33253;42.144;25.884;2022-07-29T05:21:31;100489.50;;;23.45;70.79
47524;BME280;33253;42.144;25.884;2022-07-29T05:23:57;100484.03;;;23.57;70.44
47524;BME280;33253;42.144;25.884;2022-07-29T05:26:22;100484.72;;;23.68;69.75
47524;BME280;33253;42.144;25.884;2022-07-29T05:29:08;100483.53;;;23.85;67.71
47524;BME280;33253;42.144;25.884;2022-07-29T05:31:33;100502.66;;;23.99;67.27
47524;BME280;33253;42.144;25.884;2022-07-29T05:33:59;100462.66;;;23.74;68.54
47524;BME280;33253;42.144;25.884;2022-07-29T05:36:25;100461.53;;;23.87;67.26
47524;BME280;33253;42.144;25.884;2022-07-29T05:38:51;100504.97;;;24.18;67.47
47524;BME280;33253;42.144;25.884;2022-07-29T05:41:18;100514.63;;;24.19;67.24
47524;BME280;33253;42.144;25.884;2022-07-29T05:43:45;100508.31;;;24.26;68.47
47524;BME280;33253;42.144;25.884;2022-07-29T05:46:10;100507.53;;;24.22;68.89
47524;BME280;33253;42.144;25.884;2022-07-29T05:48:36;100523.81;;;23.98;70.25
47524;BME280;33253;42.144;25.884;2022-07-29T05:51:01;100498.34;;;23.95;67.38
47524;BME280;33253;42.144;25.884;2022-07-29T05:53:27;100512.06;;;24.14;67.08
47524;BME280;33253;42.144;25.884;2022-07-29T05:55:53;100522.13;;;23.90;68.01
47524;BME280;33253;42.144;25.884;2022-07-29T05:58:18;100520.41;;;23.88;69.34
47524;BME280;33253;42.144;25.884;2022-07-29T06:00:44;100468.69;;;23.81;67.93
47524;BME280;33253;42.144;25.884;2022-07-29T06:03:11;100510.31;;;24.13;66.99
47524;BME280;33253;42.144;25.884;2022-07-29T06:05:36;100504.06;;;24.19;66.68
47524;BME280;33253;42.144;25.884;2022-07-29T06:08:03;100489.97;;;24.20;66.26
47524;BME280;33253;42.144;25.884;2022-07-29T06:10:31;100473.75;;;23.95;68.44
47524;BME280;33253;42.144;25.884;2022-07-29T06:12:56;100506.78;;;24.14;67.29
47524;BME280;33253;42.144;25.884;2022-07-29T06:15:22;100495.06;;;24.29;65.63
47524;BME280;33253;42.144;25.884;2022-07-29T06:17:47;100513.75;;;24.64;64.55
47524;BME280;33253;42.144;25.884;2022-07-29T06:20:13;100501.25;;;24.74;66.19
47524;BME280;33253;42.144;25.884;2022-07-29T06:22:39;100501.13;;;24.78;64.88
47524;BME280;33253;42.144;25.884;2022-07-29T06:25:04;100493.19;;;24.80;64.03
47524;BME280;33253;42.144;25.884;2022-07-29T06:27:30;100508.69;;;24.95;65.50
47524;BME280;33253;42.144;25.884;2022-07-29T06:29:56;100516.34;;;25.08;64.06
47524;BME280;33253;42.144;25.884;2022-07-29T06:32:21;100495.22;;;25.08;62.90
47524;BME280;33253;42.144;25.884;2022-07-29T06:34:47;100502.56;;;25.32;61.77
47524;BME280;33253;42.144;25.884;2022-07-29T06:37:13;100504.88;;;25.48;62.23
47524;BME280;33253;42.144;25.884;2022-07-29T06:39:39;100507.22;;;25.60;60.80
47524;BME280;33253;42.144;25.884;2022-07-29T06:42:05;100488.50;;;25.68;60.66
47524;BME280;33253;42.144;25.884;2022-07-29T06:44:31;100497.28;;;25.70;62.29
47524;BME280;33253;42.144;25.884;2022-07-29T06:46:58;100460.38;;;25.65;60.03
47524;BME280;33253;42.144;25.884;2022-07-29T06:49:23;100476.72;;;25.81;60.54
47524;BME280;33253;42.144;25.884;2022-07-29T06:51:51;100459.88;;;25.84;57.58
47524;BME280;33253;42.144;25.884;2022-07-29T06:54:16;100474.31;;;26.05;58.73
47524;BME280;33253;42.144;25.884;2022-07-29T06:56:42;100476.94;;;26.07;57.74
47524;BME280;33253;42.144;25.884;2022-07-29T06:59:09;100476.72;;;26.16;63.37
47524;BME280;33253;42.144;25.884;2022-07-29T07:01:55;100480.66;;;26.32;59.00
47524;BME280;33253;42.144;25.884;2022-07-29T07:04:20;100477.59;;;26.46;53.79
47524;BME280;33253;42.144;25.884;2022-07-29T07:06:46;100426.88;;;26.32;50.24
47524;BME280;33253;42.144;25.884;2022-07-29T07:09:11;100433.38;;;26.50;54.08
47524;BME280;33253;42.144;25.884;2022-07-29T07:11:37;100474.72;;;26.86;49.05
47524;BME280;33253;42.144;25.884;2022-07-29T07:14:02;100443.25;;;26.75;49.85
47524;BME280;33253;42.144;25.884;2022-07-29T07:16:27;100469.56;;;27.09;51.42
47524;BME280;33253;42.144;25.884;2022-07-29T07:18:53;100418.44;;;27.06;48.85
47524;BME280;33253;42.144;25.884;2022-07-29T07:21:18;100443.31;;;27.28;48.64
47524;BME280;33253;42.144;25.884;2022-07-29T07:23:44;100469.34;;;27.71;46.11
47524;BME280;33253;42.144;25.884;2022-07-29T07:26:10;100461.94;;;27.81;47.22
47524;BME280;33253;42.144;25.884;2022-07-29T07:28:36;100458.38;;;27.82;50.71
47524;BME280;33253;42.144;25.884;2022-07-29T07:31:02;100460.41;;;27.99;47.43
47524;BME280;33253;42.144;25.884;2022-07-29T07:33:27;100445.19;;;28.05;46.01
47524;BME280;33253;42.144;25.884;2022-07-29T07:35:53;100444.94;;;28.12;45.64
47524;BME280;33253;42.144;25.884;2022-07-29T07:38:19;100461.88;;;28.33;45.13
47524;BME280;33253;42.144;25.884;2022-07-29T07:40:44;100458.78;;;28.44;47.18
47524;BME280;33253;42.144;25.884;2022-07-29T07:43:11;100465.22;;;28.62;44.62
47524;BME280;33253;42.144;25.884;2022-07-29T07:45:36;100447.53;;;28.61;46.14
47524;BME280;33253;42.144;25.884;2022-07-29T07:48:03;100460.31;;;28.75;48.36
47524;BME280;33253;42.144;25.884;2022-07-29T07:50:28;100455.00;;;28.75;45.79
47524;BME280;33253;42.144;25.884;2022-07-29T07:52:55;100412.75;;;28.45;45.65
47524;BME280;33253;42.144;25.884;2022-07-29T07:55:24;100444.31;;;28.76;46.66
47524;BME280;33253;42.144;25.884;2022-07-29T07:57:49;100432.75;;;28.77;45.29
47524;BME280;33253;42.144;25.884;2022-07-29T08:00:16;100444.88;;;28.84;44.64
47524;BME280;33253;42.144;25.884;2022-07-29T08:02:41;100447.84;;;28.77;46.82
47524;BME280;33253;42.144;25.884;2022-07-29T08:05:09;100449.28;;;28.85;45.30
47524;BME280;33253;42.144;25.884;2022-07-29T08:07:34;100435.59;;;28.95;44.59
47524;BME280;33253;42.144;25.884;2022-07-29T08:10:00;100447.78;;;29.23;41.70
47524;BME280;33253;42.144;25.884;2022-07-29T08:12:25;100408.75;;;29.02;43.54
47524;BME280;33253;42.144;25.884;2022-07-29T08:14:51;100455.97;;;29.40;45.98
47524;BME280;33253;42.144;25.884;2022-07-29T08:17:16;100455.44;;;29.52;43.44
47524;BME280;33253;42.144;25.884;2022-07-29T08:19:42;100433.09;;;29.57;43.01
47524;BME280;33253;42.144;25.884;2022-07-29T08:22:07;100406.75;;;29.50;40.85
47524;BME280;33253;42.144;25.884;2022-07-29T08:24:32;100442.66;;;29.81;44.96
47524;BME280;33253;42.144;25.884;2022-07-29T08:27:18;100427.16;;;29.70;44.08
47524;BME280;33253;42.144;25.884;2022-07-29T08:29:45;100436.34;;;29.84;41.54
47524;BME280;33253;42.144;25.884;2022-07-29T08:32:10;100435.19;;;29.91;41.20
47524;BME280;33253;42.144;25.884;2022-07-29T08:34:36;100412.47;;;29.82;42.84
47524;BME280;33253;42.144;25.884;2022-07-29T08:37:01;100438.03;;;30.07;41.14
47524;BME280;33253;42.144;25.884;2022-07-29T08:39:27;100441.34;;;30.12;43.42
47524;BME280;33253;42.144;25.884;2022-07-29T08:41:52;100423.09;;;30.03;44.52
47524;BME280;33253;42.144;25.884;2022-07-29T08:44:18;100435.56;;;30.22;40.84
47524;BME280;33253;42.144;25.884;2022-07-29T08:46:44;100352.66;;;29.91;40.92
47524;BME280;33253;42.144;25.884;2022-07-29T08:49:10;100417.53;;;30.47;41.75
47524;BME280;33253;42.144;25.884;2022-07-29T08:51:39;100420.66;;;30.57;39.70
47524;BME280;33253;42.144;25.884;2022-07-29T08:54:05;100417.91;;;30.59;39.76
47524;BME280;33253;42.144;25.884;2022-07-29T08:56:31;100413.44;;;30.78;40.01
47524;BME280;33253;42.144;25.884;2022-07-29T08:58:58;100417.16;;;30.93;40.17
47524;BME280;33253;42.144;25.884;2022-07-29T09:01:27;100412.28;;;31.02;39.87
47524;BME280;33253;42.144;25.884;2022-07-29T09:03:58;100381.41;;;30.97;39.49
47524;BME280;33253;42.144;25.884;2022-07-29T09:06:31;100425.63;;;31.21;39.69
47524;BME280;33253;42.144;25.884;2022-07-29T09:08:59;100405.84;;;31.25;36.71
47524;BME280;33253;42.144;25.884;2022-07-29T09:11:25;100375.75;;;31.04;38.38
47524;BME280;33253;42.144;25.884;2022-07-29T09:13:50;100399.97;;;31.36;37.76
47524;BME280;33253;42.144;25.884;2022-07-29T09:16:16;100398.06;;;31.20;36.96
47524;BME280;33253;42.144;25.884;2022-07-29T09:18:43;100405.13;;;31.21;37.17
47524;BME280;33253;42.144;25.884;2022-07-29T09:21:11;100398.84;;;31.22;39.14
47524;BME280;33253;42.144;25.884;2022-07-29T09:24:11;100411.78;;;31.48;37.35
47524;BME280;33253;42.144;25.884;2022-07-29T09:26:41;100399.88;;;31.55;38.71
47524;BME280;33253;42.144;25.884;2022-07-29T09:29:23;100410.13;;;31.62;37.60
47524;BME280;33253;42.144;25.884;2022-07-29T09:32:09;100388.03;;;31.78;39.99
47524;BME280;33253;42.144;25.884;2022-07-29T09:34:35;100410.88;;;32.00;37.37
47524;BME280;33253;42.144;25.884;2022-07-29T09:37:02;100412.91;;;32.12;38.52
47524;BME280;33253;42.144;25.884;2022-07-29T09:39:36;100398.06;;;32.24;35.86
47524;BME280;33253;42.144;25.884;2022-07-29T09:42:05;100403.47;;;32.38;37.37
47524;BME280;33253;42.144;25.884;2022-07-29T09:44:45;100402.00;;;32.49;38.66
47524;BME280;33253;42.144;25.884;2022-07-29T09:47:12;100386.06;;;32.31;35.91
47524;BME280;33253;42.144;25.884;2022-07-29T09:50:10;100379.03;;;32.30;36.17
47524;BME280;33253;42.144;25.884;2022-07-29T09:52:45;100370.91;;;32.48;37.36
47524;BME280;33253;42.144;25.884;2022-07-29T09:55:11;100397.63;;;32.80;36.34
47524;BME280;33253;42.144;25.884;2022-07-29T09:57:37;100397.25;;;33.02;34.31
47524;BME280;33253;42.144;25.884;2022-07-29T10:00:11;100390.13;;;33.17;33.15
47524;BME280;33253;42.144;25.884;2022-07-29T10:02:38;100373.59;;;33.10;35.01
47524;BME280;33253;42.144;25.884;2022-07-29T10:05:06;100388.50;;;33.30;35.02
47524;BME280;33253;42.144;25.884;2022-07-29T10:10:24;100375.50;;;33.38;33.88
47524;BME280;33253;42.144;25.884;2022-07-29T10:12:53;100368.81;;;33.46;33.79
47524;BME280;33253;42.144;25.884;2022-07-29T10:15:21;100379.56;;;33.60;34.84
47524;BME280;33253;42.144;25.884;2022-07-29T10:17:46;100377.66;;;33.77;34.14
47524;BME280;33253;42.144;25.884;2022-07-29T10:20:13;100378.72;;;34.03;33.71
47524;BME280;33253;42.144;25.884;2022-07-29T10:22:40;100300.09;;;33.75;33.57
47524;BME280;33253;42.144;25.884;2022-07-29T10:25:08;100353.81;;;34.30;32.00
47524;BME280;33253;42.144;25.884;2022-07-29T10:27:54;100359.47;;;34.40;31.60
47524;BME280;33253;42.144;25.884;2022-07-29T10:30:21;100358.97;;;34.47;32.00
47524;BME280;33253;42.144;25.884;2022-07-29T10:43:37;100342.09;;;34.73;31.58
47524;BME280;33253;42.144;25.884;2022-07-29T10:46:05;100317.69;;;34.77;30.79
47524;BME280;33253;42.144;25.884;2022-07-29T10:48:31;100333.94;;;35.02;29.91
47524;BME280;33253;42.144;25.884;2022-07-29T10:51:02;100331.72;;;35.08;29.76
47524;BME280;33253;42.144;25.884;2022-07-29T10:53:51;100331.69;;;34.68;30.65
47524;BME280;33253;42.144;25.884;2022-07-29T10:56:29;100336.97;;;34.42;30.19
47524;BME280;33253;42.144;25.884;2022-07-29T11:01:39;100310.91;;;33.74;31.07
47524;BME280;33253;42.144;25.884;2022-07-29T11:04:05;100287.13;;;33.83;30.84
47524;BME280;33253;42.144;25.884;2022-07-29T11:09:24;100302.03;;;34.29;30.16
47524;BME280;33253;42.144;25.884;2022-07-29T11:11:49;100314.91;;;34.51;30.13
47524;BME280;33253;42.144;25.884;2022-07-29T11:14:17;100293.72;;;34.61;33.01
47524;BME280;33253;42.144;25.884;2022-07-29T11:17:03;100305.97;;;35.06;29.38
47524;BME280;33253;42.144;25.884;2022-07-29T11:19:29;100277.50;;;34.90;30.96
47524;BME280;33253;42.144;25.884;2022-07-29T11:21:55;100299.00;;;35.16;28.27
47524;BME280;33253;42.144;25.884;2022-07-29T11:24:23;100302.69;;;35.41;28.96
47524;BME280;33253;42.144;25.884;2022-07-29T11:27:24;100270.63;;;35.63;27.35
47524;BME280;33253;42.144;25.884;2022-07-29T11:29:58;100300.56;;;35.96;29.09
47524;BME280;33253;42.144;25.884;2022-07-29T11:32:36;100299.78;;;36.07;27.76
47524;BME280;33253;42.144;25.884;2022-07-29T11:35:20;100303.41;;;36.19;27.45
47524;BME280;33253;42.144;25.884;2022-07-29T11:41:26;100283.78;;;36.05;28.42
47524;BME280;33253;42.144;25.884;2022-07-29T11:43:56;100287.00;;;35.98;28.26
47524;BME280;33253;42.144;25.884;2022-07-29T11:49:26;100262.06;;;36.08;27.31
47524;BME280;33253;42.144;25.884;2022-07-29T11:51:56;100283.84;;;36.17;26.82
47524;BME280;33253;42.144;25.884;2022-07-29T11:54:25;100265.94;;;36.28;26.61
47524;BME280;33253;42.144;25.884;2022-07-29T11:56:52;100259.34;;;36.46;26.72
47524;BME280;33253;42.144;25.884;2022-07-29T11:59:19;100270.47;;;36.52;26.06
47524;BME280;33253;42.144;25.884;2022-07-29T12:01:57;100224.50;;;35.95;29.00
47524;BME280;33253;42.144;25.884;2022-07-29T12:04:24;100221.94;;;36.18;27.10
47524;BME280;33253;42.144;25.884;2022-07-29T12:06:50;100262.81;;;36.59;26.40
47524;BME280;33253;42.144;25.884;2022-07-29T12:09:17;100252.19;;;36.69;25.66
47524;BME280;33253;42.144;25.884;2022-07-29T12:11:43;100228.25;;;36.77;26.67
47524;BME280;33253;42.144;25.884;2022-07-29T12:14:09;100228.31;;;37.00;24.69
47524;BME280;33253;42.144;25.884;2022-07-29T12:16:37;100211.69;;;36.95;26.33
47524;BME280;33253;42.144;25.884;2022-07-29T12:19:03;100224.44;;;37.15;25.52
47524;BME280;33253;42.144;25.884;2022-07-29T12:21:43;100231.03;;;37.11;25.93
47524;BME280;33253;42.144;25.884;2022-07-29T12:24:09;100250.38;;;37.16;25.35
47524;BME280;33253;42.144;25.884;2022-07-29T12:26:34;100211.47;;;37.09;25.11
47524;BME280;33253;42.144;25.884;2022-07-29T12:29:00;100196.56;;;37.16;25.20
47524;BME280;33253;42.144;25.884;2022-07-29T12:31:27;100246.47;;;37.43;24.31
47524;BME280;33253;42.144;25.884;2022-07-29T12:33:53;100240.13;;;37.55;25.23
47524;BME280;33253;42.144;25.884;2022-07-29T12:36:19;100234.72;;;37.67;24.30
47524;BME280;33253;42.144;25.884;2022-07-29T12:38:45;100214.91;;;37.57;24.50
47524;BME280;33253;42.144;25.884;2022-07-29T12:41:11;100249.13;;;37.77;23.18
47524;BME280;33253;42.144;25.884;2022-07-29T12:43:37;100224.31;;;37.74;22.96
47524;BME280;33253;42.144;25.884;2022-07-29T12:46:14;100198.06;;;37.76;23.52
47524;BME280;33253;42.144;25.884;2022-07-29T12:48:42;100229.81;;;37.95;23.51
47524;BME280;33253;42.144;25.884;2022-07-29T12:51:08;100211.69;;;37.74;23.92
47524;BME280;33253;42.144;25.884;2022-07-29T12:53:36;100218.03;;;37.73;22.66
47524;BME280;33253;42.144;25.884;2022-07-29T12:56:02;100226.00;;;37.86;22.45
47524;BME280;33253;42.144;25.884;2022-07-29T12:58:31;100231.75;;;37.93;23.97
47524;BME280;33253;42.144;25.884;2022-07-29T13:01:00;100222.28;;;38.10;23.18
47524;BME280;33253;42.144;25.884;2022-07-29T13:03:27;100172.97;;;37.86;22.88
47524;BME280;33253;42.144;25.884;2022-07-29T13:05:52;100219.91;;;37.84;22.13
47524;BME280;33253;42.144;25.884;2022-07-29T13:08:18;100185.19;;;37.35;22.68
47524;BME280;33253;42.144;25.884;2022-07-29T13:10:45;100225.66;;;37.57;22.55
47524;BME280;33253;42.144;25.884;2022-07-29T13:13:16;100186.41;;;37.43;22.18
47524;BME280;33253;42.144;25.884;2022-07-29T13:15:44;100213.16;;;37.67;22.83
47524;BME280;33253;42.144;25.884;2022-07-29T13:18:32;100202.16;;;37.81;22.63
47524;BME280;33253;42.144;25.884;2022-07-29T13:21:13;100206.16;;;37.76;21.33